createdAt,value
2023-02-21T00:00:12.576Z,100384.16
2023-02-21T00:02:59.089Z,100348.72
2023-02-21T00:05:45.745Z,100399.34
2023-02-21T00:09:00.364Z,100373.84
2023-02-21T00:11:49.125Z,100394.16
2023-02-21T00:14:35.225Z,100393.34
2023-02-21T00:17:21.434Z,100397.81
2023-02-21T00:20:09.623Z,100392.59
2023-02-21T00:22:58.487Z,100390.13
2023-02-21T00:25:46.512Z,100393.28
2023-02-21T00:28:32.916Z,100381.25
2023-02-21T00:31:19.076Z,100400.69
2023-02-21T00:34:05.193Z,100382.41
2023-02-21T00:36:51.545Z,100386.06
2023-02-21T00:39:38.179Z,100372.16
2023-02-21T00:42:31.207Z,100368.66
2023-02-21T00:45:17.755Z,100366.78
2023-02-21T00:48:03.700Z,100373.00
2023-02-21T00:50:49.832Z,100368.44
2023-02-21T00:53:37.487Z,100352.81
2023-02-21T00:56:26.522Z,100368.50
2023-02-21T00:59:19.775Z,100372.13
2023-02-21T01:02:07.482Z,100364.22
2023-02-21T01:04:55.568Z,100369.56
2023-02-21T01:07:41.603Z,100360.81
2023-02-21T01:10:29.980Z,100346.78
2023-02-21T01:13:16.066Z,100341.41
2023-02-21T01:16:04.046Z,100345.81
2023-02-21T01:18:50.129Z,100351.88
2023-02-21T01:21:38.788Z,100247.56
2023-02-21T01:24:30.367Z,100316.09
2023-02-21T01:27:17.657Z,100343.13
2023-02-21T01:30:05.237Z,100347.50
2023-02-21T01:32:53.180Z,100323.81
2023-02-21T01:35:39.378Z,100334.38
2023-02-21T01:38:25.477Z,100324.63
2023-02-21T01:41:11.741Z,100227.16
2023-02-21T01:43:58.146Z,100263.59
2023-02-21T01:46:46.925Z,100317.44
2023-02-21T01:49:39.506Z,100310.22
2023-02-21T01:52:26.023Z,100310.09
2023-02-21T01:55:15.403Z,100242.31
2023-02-21T01:58:06.178Z,100288.28
2023-02-21T02:00:52.784Z,100296.94
2023-02-21T02:03:46.089Z,100128.31
2023-02-21T02:06:35.581Z,100290.84
2023-02-21T02:09:34.430Z,100236.81
2023-02-21T02:12:37.126Z,100225.38
2023-02-21T02:15:26.578Z,100262.00
2023-02-21T02:18:50.033Z,100253.38
2023-02-21T02:22:10.727Z,100011.69
2023-02-21T02:25:16.203Z,100154.00
2023-02-21T02:28:11.088Z,100268.44
2023-02-21T02:31:36.026Z,100067.00
2023-02-21T02:34:50.699Z,100221.75
2023-02-21T02:37:31.107Z,100268.53
2023-02-21T02:40:11.325Z,100251.97
2023-02-21T02:42:54.417Z,100265.88
2023-02-21T02:45:34.944Z,100160.66
2023-02-21T02:48:12.978Z,100005.19
2023-02-21T02:50:52.283Z,100101.63
2023-02-21T02:53:26.226Z,100140.53
2023-02-21T02:56:02.617Z,100234.75
2023-02-21T02:59:09.338Z,100256.28
2023-02-21T03:02:24.182Z,100226.63
2023-02-21T03:05:16.305Z,100073.06
2023-02-21T03:08:02.000Z,100254.44
2023-02-21T03:10:46.042Z,100240.53
2023-02-21T03:13:27.636Z,100254.44
2023-02-21T03:16:05.814Z,100194.50
2023-02-21T03:18:44.464Z,100039.03
2023-02-21T03:21:18.801Z,100066.75
2023-02-21T03:23:59.805Z,100084.13
2023-02-21T03:26:35.846Z,99983.41
2023-02-21T03:29:22.495Z,100250.81
2023-02-21T03:32:13.738Z,100097.13
2023-02-21T03:34:47.262Z,100265.63
2023-02-21T03:37:32.006Z,100153.09
2023-02-21T03:40:04.179Z,100260.66
2023-02-21T03:42:37.712Z,100268.66
2023-02-21T03:45:07.598Z,100263.25
2023-02-21T03:47:37.876Z,100261.63
2023-02-21T03:50:09.274Z,100267.59
2023-02-21T03:52:41.295Z,100258.09
2023-02-21T03:55:12.092Z,100248.47
2023-02-21T03:57:41.233Z,100228.31
2023-02-21T04:00:11.764Z,100245.84
2023-02-21T04:02:49.601Z,100241.47
2023-02-21T04:05:30.653Z,100246.78
2023-02-21T04:07:59.775Z,100235.25
2023-02-21T04:10:34.032Z,100243.25
2023-02-21T04:13:10.524Z,100237.97
2023-02-21T04:15:44.785Z,100250.91
2023-02-21T04:18:14.662Z,100240.28
2023-02-21T04:20:47.526Z,100251.72
2023-02-21T04:23:20.532Z,100255.31
2023-02-21T04:25:51.230Z,100257.81
2023-02-21T04:28:29.311Z,100257.03
2023-02-21T04:30:58.100Z,100267.56
2023-02-21T04:33:30.353Z,100202.47
2023-02-21T04:36:01.750Z,100257.97
2023-02-21T04:38:43.439Z,100257.09
2023-02-21T04:41:17.399Z,100255.22
2023-02-21T04:43:50.646Z,100273.69
2023-02-21T04:46:26.549Z,100271.84
2023-02-21T04:48:59.130Z,100273.59
2023-02-21T04:51:31.851Z,100283.47
2023-02-21T04:54:02.238Z,100272.13
2023-02-21T04:56:48.187Z,100267.44
2023-02-21T04:59:18.979Z,100260.28
2023-02-21T05:01:49.512Z,100270.97
2023-02-21T05:04:35.269Z,100273.56
2023-02-21T05:07:10.843Z,100278.63
2023-02-21T05:09:43.433Z,100268.91
2023-02-21T05:12:16.992Z,100277.72
2023-02-21T05:14:45.963Z,100274.22
2023-02-21T05:17:15.022Z,100276.88
2023-02-21T05:19:54.004Z,100283.91
2023-02-21T05:22:24.904Z,100280.56
2023-02-21T05:25:03.588Z,100285.69
2023-02-21T05:27:35.059Z,100291.88
2023-02-21T05:31:00.945Z,100224.25
2023-02-21T05:33:48.300Z,100303.34
2023-02-21T05:36:19.295Z,100253.84
2023-02-21T05:38:59.669Z,100301.59
2023-02-21T05:41:28.518Z,100296.50
2023-02-21T05:44:01.140Z,100303.25
2023-02-21T05:46:38.756Z,100029.53
2023-02-21T05:58:32.316Z,100304.34
2023-02-21T06:02:04.020Z,100209.88
2023-02-21T06:04:47.825Z,100304.44
2023-02-21T06:07:42.314Z,100325.66
2023-02-21T06:10:22.489Z,100313.25
2023-02-21T06:12:54.249Z,100310.53
2023-02-21T06:15:23.820Z,100321.19
2023-02-21T06:18:14.453Z,100039.47
2023-02-21T06:21:31.303Z,100312.31
2023-02-21T06:24:05.899Z,100047.38
2023-02-21T06:27:35.020Z,100332.63
2023-02-21T06:30:25.598Z,100168.28
2023-02-21T06:33:35.680Z,100330.84
2023-02-21T06:36:35.868Z,100068.63
2023-02-21T06:39:04.949Z,100341.44
2023-02-21T06:41:33.839Z,100350.34
2023-02-21T06:44:02.838Z,100354.53
2023-02-21T06:46:38.286Z,100362.50
2023-02-21T06:49:07.478Z,100360.69
2023-02-21T06:51:49.406Z,100366.06
2023-02-21T06:54:19.195Z,100366.91
2023-02-21T06:56:49.529Z,100372.25
2023-02-21T06:59:18.586Z,100380.84
2023-02-21T07:01:53.674Z,100390.47
2023-02-21T07:04:22.807Z,100395.81
2023-02-21T07:06:55.452Z,100392.22
2023-02-21T07:09:26.404Z,100400.25
2023-02-21T07:11:55.281Z,100396.63
2023-02-21T07:14:24.318Z,100404.47
2023-02-21T07:16:53.438Z,100413.19
2023-02-21T07:19:22.626Z,100400.75
2023-02-21T07:21:58.886Z,100418.34
2023-02-21T07:24:28.893Z,100412.94
2023-02-21T07:26:58.137Z,100420.03
2023-02-21T07:29:31.120Z,100420.03
2023-02-21T07:32:00.166Z,100418.28
2023-02-21T07:34:28.990Z,100428.81
2023-02-21T07:42:13.611Z,100209.38
2023-02-21T07:45:05.720Z,100438.94
2023-02-21T07:47:37.824Z,100437.19
2023-02-21T07:50:08.346Z,100356.28
2023-02-21T07:52:39.875Z,100449.53
2023-02-21T07:55:09.341Z,100443.41
2023-02-21T07:57:42.499Z,100453.91
2023-02-21T08:00:15.088Z,100453.72
2023-02-21T08:02:50.057Z,100445.81
2023-02-21T08:05:27.962Z,100457.91
2023-02-21T08:07:58.533Z,100463.97
2023-02-21T08:10:29.574Z,100419.53
2023-02-21T08:12:59.780Z,100469.09
2023-02-21T08:15:33.943Z,100476.13
2023-02-21T08:18:03.320Z,100469.19
2023-02-21T08:20:35.429Z,100481.44
2023-02-21T08:23:15.016Z,100481.72
2023-02-21T08:25:51.609Z,100481.81
2023-02-21T08:28:24.686Z,100489.75
2023-02-21T08:30:53.985Z,100490.81
2023-02-21T08:33:23.244Z,100497.09
2023-02-21T08:35:52.488Z,100492.72
2023-02-21T08:38:22.233Z,100497.97
2023-02-21T08:40:57.466Z,100501.44
2023-02-21T08:43:31.034Z,100495.28
2023-02-21T08:46:02.877Z,100492.69
2023-02-21T08:48:34.232Z,100494.53
2023-02-21T08:51:04.688Z,100498.88
2023-02-21T08:53:36.445Z,100491.00
2023-02-21T08:56:05.579Z,100496.22
2023-02-21T08:58:43.982Z,100504.16
2023-02-21T09:01:13.331Z,100490.06
2023-02-21T09:03:44.121Z,100487.94
2023-02-21T09:06:16.343Z,100488.69
2023-02-21T09:08:49.621Z,100493.78
2023-02-21T09:11:18.774Z,100490.25
2023-02-21T09:13:53.182Z,100490.25
2023-02-21T09:16:25.364Z,100495.47
2023-02-21T09:19:01.543Z,100493.50
2023-02-21T09:21:48.866Z,100501.38
2023-02-21T09:24:26.856Z,100491.81
2023-02-21T09:27:05.435Z,100247.00
2023-02-21T09:29:45.849Z,100441.50
2023-02-21T09:32:18.550Z,100494.44
2023-02-21T09:34:49.390Z,100498.75
2023-02-21T09:37:18.700Z,100501.31
2023-02-21T09:39:49.619Z,100494.34
2023-02-21T09:42:30.244Z,100494.38
2023-02-21T09:45:04.650Z,100509.50
2023-02-21T09:47:40.150Z,100352.97
2023-02-21T09:50:27.810Z,100374.63
2023-02-21T09:53:04.171Z,100240.69
2023-02-21T09:55:40.009Z,100256.50
2023-02-21T09:58:15.077Z,100513.97
2023-02-21T10:01:04.576Z,100406.31
2023-02-21T10:03:55.590Z,100363.06
2023-02-21T10:06:41.197Z,100377.53
2023-02-21T10:09:26.188Z,100364.59
2023-02-21T10:12:25.814Z,100283.13
2023-02-21T10:15:20.969Z,100390.16
2023-02-21T10:18:01.451Z,100429.41
2023-02-21T10:20:45.603Z,100348.78
2023-02-21T10:23:23.179Z,100394.03
2023-02-21T10:25:59.813Z,100362.28
2023-02-21T10:28:28.982Z,100530.97
2023-02-21T10:31:09.009Z,100435.53
2023-02-21T10:33:40.884Z,100295.81
2023-02-21T10:36:29.235Z,100413.47
2023-02-21T10:39:12.383Z,100426.56
2023-02-21T10:41:43.025Z,100338.56
2023-02-21T10:44:24.610Z,100502.03
2023-02-21T10:47:03.052Z,100348.03
2023-02-21T10:49:53.434Z,100551.75
2023-02-21T10:52:23.946Z,100532.47
2023-02-21T10:55:04.381Z,100464.78
2023-02-21T10:57:35.727Z,100488.63
2023-02-21T11:00:10.336Z,100536.41
2023-02-21T11:02:46.835Z,100438.25
2023-02-21T11:05:22.353Z,100259.19
2023-02-21T11:08:09.350Z,100298.13
2023-02-21T11:10:42.358Z,100353.84
2023-02-21T11:13:22.225Z,100379.03
2023-02-21T11:16:08.519Z,100535.13
2023-02-21T11:18:39.304Z,100539.91
2023-02-21T11:21:17.403Z,100486.75
2023-02-21T11:23:50.591Z,100527.13
2023-02-21T11:26:21.742Z,100539.78
2023-02-21T11:28:51.109Z,100526.94
2023-02-21T11:31:33.750Z,100269.94
2023-02-21T11:34:06.349Z,100408.09
2023-02-21T11:36:44.945Z,100285.38
2023-02-21T11:39:35.329Z,100425.72
2023-02-21T11:42:27.203Z,100433.66
2023-02-21T11:45:22.154Z,100409.84
2023-02-21T11:48:16.806Z,100320.41
2023-02-21T11:50:55.444Z,100394.16
2023-02-21T11:53:37.543Z,100377.66
2023-02-21T11:56:20.562Z,100389.53
2023-02-21T11:59:08.380Z,100347.16
2023-02-21T12:01:54.987Z,100394.25
2023-02-21T12:05:01.977Z,100415.69
2023-02-21T12:07:45.511Z,100435.22
2023-02-21T12:10:49.276Z,100385.63
2023-02-21T12:13:35.599Z,100385.72
2023-02-21T12:16:16.415Z,100388.41
2023-02-21T12:19:07.195Z,100249.09
2023-02-21T12:22:05.452Z,100373.09
2023-02-21T12:24:57.699Z,100281.41
2023-02-21T12:27:47.855Z,100374.69
2023-02-21T12:31:00.860Z,100489.16
2023-02-21T12:33:50.507Z,100417.13
2023-02-21T12:36:50.113Z,100262.38
2023-02-21T12:39:59.333Z,100298.09
2023-02-21T12:43:52.585Z,100252.88
2023-02-21T12:50:33.302Z,100545.25
2023-02-21T12:53:09.406Z,100546.88
2023-02-21T12:56:12.353Z,100481.50
2023-02-21T12:58:53.713Z,100483.91
2023-02-21T13:06:22.919Z,100365.63
2023-02-21T13:09:27.383Z,100404.84
2023-02-21T13:12:33.199Z,100278.50
2023-02-21T13:20:21.533Z,100271.53
2023-02-21T13:24:04.714Z,100285.72
2023-02-21T13:27:02.611Z,100311.06
2023-02-21T13:29:58.235Z,100288.41
2023-02-21T13:32:30.201Z,100541.13
2023-02-21T13:35:08.479Z,100369.16
2023-02-21T13:37:59.568Z,100549.63
2023-02-21T13:50:54.546Z,100221.19
2023-02-21T13:53:36.706Z,100542.22
2023-02-21T13:56:52.254Z,100418.19
2023-02-21T13:59:39.623Z,100532.47
2023-02-21T14:02:31.274Z,100404.06
2023-02-21T14:05:10.686Z,100408.03
2023-02-21T14:08:01.502Z,100532.69
2023-02-21T14:10:54.977Z,100436.16
2023-02-21T14:13:42.951Z,100420.69
2023-02-21T14:16:25.031Z,100533.78
2023-02-21T14:19:02.820Z,100390.34
2023-02-21T14:21:39.154Z,100283.22
2023-02-21T14:24:18.820Z,100494.94
2023-02-21T15:27:25.535Z,100485.59
2023-02-21T15:55:38.163Z,100596.22
2023-02-21T16:06:59.442Z,100331.50
2023-02-21T16:09:42.773Z,100589.47
2023-02-21T16:12:39.719Z,100415.91
2023-02-21T16:15:28.456Z,100390.75
2023-02-21T16:18:06.516Z,100442.97
2023-02-21T16:20:40.112Z,100526.78
2023-02-21T16:23:39.915Z,100353.31
2023-02-21T16:27:06.922Z,100491.88
2023-02-21T16:29:38.507Z,100592.19
2023-02-21T16:32:08.586Z,100583.44
2023-02-21T16:34:41.977Z,100579.06
2023-02-21T16:37:18.564Z,100470.19
2023-02-21T16:39:47.912Z,100597.56
2023-02-21T16:42:17.869Z,100603.78
2023-02-21T16:44:48.085Z,100607.38
2023-02-21T16:47:26.454Z,100632.00
2023-02-21T16:49:55.699Z,100624.09
2023-02-21T16:53:17.352Z,100437.34
2023-02-21T16:55:55.334Z,100641.63
2023-02-21T17:07:06.383Z,100397.50
2023-02-21T17:10:42.572Z,100655.72
2023-02-21T17:28:26.935Z,100401.13
2023-02-21T17:31:29.875Z,100659.41
2023-02-21T17:34:41.451Z,100335.88
2023-02-21T17:37:13.151Z,100677.88
2023-02-21T18:15:59.089Z,100698.13
2023-02-21T18:18:59.803Z,100699.00
2023-02-21T18:22:10.837Z,100693.72
2023-02-21T18:25:51.354Z,100696.38
2023-02-21T18:31:57.509Z,100574.28
2023-02-21T18:34:42.498Z,100707.81
2023-02-21T18:37:23.611Z,100712.22
2023-02-21T18:40:15.138Z,100714.03
2023-02-21T18:42:49.205Z,100712.28
2023-02-21T18:45:19.876Z,100712.31
2023-02-21T18:48:38.098Z,100720.22
2023-02-21T18:51:19.086Z,100712.22
2023-02-21T18:55:02.175Z,100401.66
2023-02-21T18:57:53.987Z,100457.38
2023-02-21T19:46:00.220Z,100752.88
2023-02-21T19:49:25.352Z,100768.72
2023-02-21T19:56:09.701Z,100767.91
2023-02-21T19:59:03.295Z,100772.31
2023-02-21T20:01:42.628Z,100760.00
2023-02-21T20:04:15.766Z,100764.41
2023-02-21T20:06:48.016Z,100760.88
2023-02-21T20:09:30.636Z,100762.59
2023-02-21T20:12:03.114Z,100760.00
2023-02-21T20:14:49.650Z,100767.03
2023-02-21T20:17:26.520Z,100774.13
2023-02-21T20:20:12.824Z,100776.72
2023-02-21T20:22:42.193Z,100774.97
2023-02-21T20:25:12.355Z,100768.81
2023-02-21T20:27:42.605Z,100780.25
2023-02-21T20:30:17.056Z,100783.78
2023-02-21T20:32:58.957Z,100751.47
2023-02-21T20:43:22.882Z,100775.00
2023-02-21T20:46:54.365Z,100789.06
2023-02-21T20:49:46.845Z,100783.78
2023-02-21T20:52:28.255Z,100788.16
2023-02-21T20:55:05.059Z,100789.06
2023-02-21T21:02:59.412Z,100788.19
2023-02-21T21:06:45.886Z,100795.28
2023-02-21T21:13:55.885Z,100788.28
2023-02-21T21:16:28.591Z,100797.06
2023-02-21T21:19:18.984Z,100794.50
2023-02-21T21:21:55.628Z,100797.09
2023-02-21T21:25:01.915Z,100697.47
2023-02-21T21:27:48.024Z,100803.31
2023-02-21T21:30:24.792Z,100466.06
2023-02-21T21:33:08.985Z,100805.09
2023-02-21T21:38:38.749Z,100804.22
2023-02-21T21:41:13.917Z,100804.19
2023-02-21T21:43:44.253Z,100809.47
2023-02-21T21:48:18.420Z,100531.63
2023-02-21T21:50:15.709Z,100817.44
2023-02-21T21:52:48.267Z,100822.72
2023-02-21T21:55:27.779Z,100555.25
2023-02-21T21:58:00.108Z,100821.88
2023-02-21T22:00:42.208Z,100579.72
2023-02-21T22:03:17.462Z,100830.66
2023-02-21T22:05:50.418Z,100523.03
2023-02-21T22:08:22.602Z,100827.19
2023-02-21T22:10:55.053Z,100825.47
2023-02-21T22:13:42.921Z,100830.75
2023-02-21T22:16:13.706Z,100828.97
2023-02-21T22:18:45.022Z,100826.34
2023-02-21T22:24:01.461Z,100825.53
2023-02-21T22:26:39.628Z,100834.31
2023-02-21T22:29:09.436Z,100829.06
2023-02-21T22:31:39.040Z,100841.34
2023-02-21T22:34:09.703Z,100836.13
2023-02-21T22:36:39.072Z,100844.03
2023-02-21T22:39:11.315Z,100843.16
2023-02-21T22:41:43.845Z,100839.66
2023-02-21T22:44:13.986Z,100852.03
2023-02-21T22:46:48.636Z,100849.38
2023-02-21T22:49:20.403Z,100852.91
2023-02-21T22:52:09.554Z,100857.34
2023-02-21T22:54:40.509Z,100860.94
2023-02-21T22:57:11.958Z,100855.69
2023-02-21T22:59:44.252Z,100860.94
2023-02-21T23:02:17.049Z,100855.63
2023-02-21T23:04:47.120Z,100855.69
2023-02-21T23:07:25.973Z,100856.56
2023-02-21T23:09:55.708Z,100854.81
2023-02-21T23:12:31.578Z,100855.72
2023-02-21T23:15:01.170Z,100851.38
2023-02-21T23:17:38.507Z,100853.09
2023-02-21T23:20:16.106Z,100844.31
2023-02-21T23:22:48.994Z,100847.88
2023-02-21T23:25:24.776Z,100852.28
2023-02-21T23:28:18.241Z,100542.63
2023-02-21T23:30:49.964Z,100665.06
2023-02-21T23:33:26.528Z,100644.03
2023-02-21T23:35:58.081Z,100860.16
2023-02-21T23:38:30.492Z,100854.03
2023-02-21T23:41:02.340Z,100851.38
2023-02-21T23:43:36.038Z,100858.41
2023-02-21T23:46:10.838Z,100511.16
2023-02-21T23:48:48.766Z,100861.94
2023-02-21T23:51:21.786Z,100857.53
2023-02-21T23:53:57.768Z,100862.75
2023-02-21T23:56:29.851Z,100861.88
2023-02-21T23:59:06.841Z,100784.84
